sensor_id;sensor_type;location;lat;lon;timestamp;P1;durP1;ratioP1;P2;durP2;ratioP2
14734;SDS011;7458;49.002;8.472;2023-04-06T00:02:03;17.58;;;10.82;;
14734;SDS011;7458;49.002;8.472;2023-04-06T00:04:29;11.73;;;9.77;;
14734;SDS011;7458;49.002;8.472;2023-04-06T00:06:55;10.13;;;9.02;;
14734;SDS011;7458;49.002;8.472;2023-04-06T00:09:21;10.75;;;9.65;;
14734;SDS011;7458;49.002;8.472;2023-04-06T00:11:48;11.15;;;9.90;;
14734;SDS011;7458;49.002;8.472;2023-04-06T00:14:14;10.63;;;9.23;;
14734;SDS011;7458;49.002;8.472;2023-04-06T00:16:42;11.35;;;10.25;;
14734;SDS011;7458;49.002;8.472;2023-04-06T00:19:08;12.63;;;8.52;;
14734;SDS011;7458;49.002;8.472;2023-04-06T00:21:34;9.90;;;8.15;;
14734;SDS011;7458;49.002;8.472;2023-04-06T00:24:00;8.95;;;6.90;;
14734;SDS011;7458;49.002;8.472;2023-04-06T00:26:26;7.93;;;6.90;;
14734;SDS011;7458;49.002;8.472;2023-04-06T00:28:52;9.43;;;7.82;;
14734;SDS011;7458;49.002;8.472;2023-04-06T00:31:17;9.13;;;7.63;;
14734;SDS011;7458;49.002;8.472;2023-04-06T00:33:44;7.82;;;7.03;;
14734;SDS011;7458;49.002;8.472;2023-04-06T00:36:10;8.82;;;7.93;;
14734;SDS011;7458;49.002;8.472;2023-04-06T00:38:36;8.05;;;6.80;;
14734;SDS011;7458;49.002;8.472;2023-04-06T00:41:03;8.15;;;6.68;;
14734;SDS011;7458;49.002;8.472;2023-04-06T00:43:29;12.82;;;8.20;;
14734;SDS011;7458;49.002;8.472;2023-04-06T00:45:56;7.03;;;6.15;;
14734;SDS011;7458;49.002;8.472;2023-04-06T00:48:22;7.82;;;6.97;;
14734;SDS011;7458;49.002;8.472;2023-04-06T00:50:48;11.70;;;8.73;;
14734;SDS011;7458;49.002;8.472;2023-04-06T00:53:14;13.52;;;7.60;;
14734;SDS011;7458;49.002;8.472;2023-04-06T00:55:40;8.77;;;6.65;;
14734;SDS011;7458;49.002;8.472;2023-04-06T00:58:06;11.30;;;8.18;;
14734;SDS011;7458;49.002;8.472;2023-04-06T01:00:32;10.57;;;7.07;;
14734;SDS011;7458;49.002;8.472;2023-04-06T01:02:58;7.90;;;6.60;;
14734;SDS011;7458;49.002;8.472;2023-04-06T01:05:24;12.50;;;8.88;;
14734;SDS011;7458;49.002;8.472;2023-04-06T01:07:50;10.75;;;7.68;;
14734;SDS011;7458;49.002;8.472;2023-04-06T01:10:26;8.60;;;7.72;;
14734;SDS011;7458;49.002;8.472;2023-04-06T01:12:53;11.90;;;7.97;;
14734;SDS011;7458;49.002;8.472;2023-04-06T01:15:20;7.50;;;6.13;;
14734;SDS011;7458;49.002;8.472;2023-04-06T01:17:46;13.73;;;7.43;;
14734;SDS011;7458;49.002;8.472;2023-04-06T01:20:12;9.30;;;8.02;;
14734;SDS011;7458;49.002;8.472;2023-04-06T01:22:38;7.10;;;6.13;;
14734;SDS011;7458;49.002;8.472;2023-04-06T01:25:05;6.63;;;5.53;;
14734;SDS011;7458;49.002;8.472;2023-04-06T01:27:31;7.78;;;6.25;;
14734;SDS011;7458;49.002;8.472;2023-04-06T01:29:58;8.63;;;6.80;;
14734;SDS011;7458;49.002;8.472;2023-04-06T01:32:24;7.20;;;6.50;;
14734;SDS011;7458;49.002;8.472;2023-04-06T01:34:50;8.50;;;7.45;;
14734;SDS011;7458;49.002;8.472;2023-04-06T01:37:16;12.90;;;7.32;;
14734;SDS011;7458;49.002;8.472;2023-04-06T01:39:43;10.88;;;7.43;;
14734;SDS011;7458;49.002;8.472;2023-04-06T01:42:09;9.90;;;8.23;;
14734;SDS011;7458;49.002;8.472;2023-04-06T01:44:35;11.48;;;9.40;;
14734;SDS011;7458;49.002;8.472;2023-04-06T01:47:02;9.52;;;8.07;;
14734;SDS011;7458;49.002;8.472;2023-04-06T01:49:28;9.25;;;7.80;;
14734;SDS011;7458;49.002;8.472;2023-04-06T01:51:53;11.30;;;8.75;;
14734;SDS011;7458;49.002;8.472;2023-04-06T01:54:20;11.90;;;9.07;;
14734;SDS011;7458;49.002;8.472;2023-04-06T01:56:45;12.75;;;9.38;;
14734;SDS011;7458;49.002;8.472;2023-04-06T01:59:12;9.25;;;7.65;;
14734;SDS011;7458;49.002;8.472;2023-04-06T02:01:37;10.45;;;8.52;;
14734;SDS011;7458;49.002;8.472;2023-04-06T02:04:03;10.70;;;7.95;;
14734;SDS011;7458;49.002;8.472;2023-04-06T02:06:29;8.65;;;7.75;;
14734;SDS011;7458;49.002;8.472;2023-04-06T02:08:55;12.80;;;8.38;;
14734;SDS011;7458;49.002;8.472;2023-04-06T02:11:21;16.85;;;10.07;;
14734;SDS011;7458;49.002;8.472;2023-04-06T02:13:47;12.07;;;9.48;;
14734;SDS011;7458;49.002;8.472;2023-04-06T02:16:12;9.77;;;8.15;;
14734;SDS011;7458;49.002;8.472;2023-04-06T02:18:39;13.63;;;9.23;;
14734;SDS011;7458;49.002;8.472;2023-04-06T02:21:05;11.25;;;9.10;;
14734;SDS011;7458;49.002;8.472;2023-04-06T02:23:31;13.40;;;9.38;;
14734;SDS011;7458;49.002;8.472;2023-04-06T02:25:57;10.25;;;8.02;;
14734;SDS011;7458;49.002;8.472;2023-04-06T02:28:23;11.27;;;9.65;;
14734;SDS011;7458;49.002;8.472;2023-04-06T02:30:49;11.82;;;9.02;;
14734;SDS011;7458;49.002;8.472;2023-04-06T02:33:15;13.73;;;9.70;;
14734;SDS011;7458;49.002;8.472;2023-04-06T02:35:41;14.15;;;9.80;;
14734;SDS011;7458;49.002;8.472;2023-04-06T02:38:09;10.57;;;8.07;;
14734;SDS011;7458;49.002;8.472;2023-04-06T02:40:35;11.88;;;9.43;;
14734;SDS011;7458;49.002;8.472;2023-04-06T02:43:01;12.93;;;11.50;;
14734;SDS011;7458;49.002;8.472;2023-04-06T02:45:27;11.73;;;9.77;;
14734;SDS011;7458;49.002;8.472;2023-04-06T02:47:52;14.55;;;9.45;;
14734;SDS011;7458;49.002;8.472;2023-04-06T02:50:18;10.60;;;7.90;;
14734;SDS011;7458;49.002;8.472;2023-04-06T02:52:44;10.27;;;7.65;;
14734;SDS011;7458;49.002;8.472;2023-04-06T02:55:10;11.77;;;7.68;;
14734;SDS011;7458;49.002;8.472;2023-04-06T02:57:36;11.02;;;8.73;;
14734;SDS011;7458;49.002;8.472;2023-04-06T03:00:02;8.55;;;7.10;;
14734;SDS011;7458;49.002;8.472;2023-04-06T03:02:28;8.88;;;6.35;;
14734;SDS011;7458;49.002;8.472;2023-04-06T03:04:55;8.38;;;6.72;;
14734;SDS011;7458;49.002;8.472;2023-04-06T03:07:21;8.35;;;7.20;;
14734;SDS011;7458;49.002;8.472;2023-04-06T03:09:47;7.97;;;6.07;;
14734;SDS011;7458;49.002;8.472;2023-04-06T03:12:13;7.07;;;5.90;;
14734;SDS011;7458;49.002;8.472;2023-04-06T03:14:39;12.82;;;7.30;;
14734;SDS011;7458;49.002;8.472;2023-04-06T03:17:05;10.93;;;7.38;;
14734;SDS011;7458;49.002;8.472;2023-04-06T03:19:31;9.45;;;7.20;;
14734;SDS011;7458;49.002;8.472;2023-04-06T03:21:57;8.85;;;7.95;;
14734;SDS011;7458;49.002;8.472;2023-04-06T03:24:23;12.07;;;7.05;;
14734;SDS011;7458;49.002;8.472;2023-04-06T03:26:49;6.55;;;5.43;;
14734;SDS011;7458;49.002;8.472;2023-04-06T03:29:15;8.35;;;6.70;;
14734;SDS011;7458;49.002;8.472;2023-04-06T03:31:41;17.20;;;7.75;;
14734;SDS011;7458;49.002;8.472;2023-04-06T03:34:07;8.85;;;7.10;;
14734;SDS011;7458;49.002;8.472;2023-04-06T03:36:34;11.48;;;6.82;;
14734;SDS011;7458;49.002;8.472;2023-04-06T03:39:00;10.30;;;7.65;;
14734;SDS011;7458;49.002;8.472;2023-04-06T03:41:26;13.05;;;8.05;;
14734;SDS011;7458;49.002;8.472;2023-04-06T03:43:52;10.00;;;7.43;;
14734;SDS011;7458;49.002;8.472;2023-04-06T03:46:18;7.95;;;6.78;;
14734;SDS011;7458;49.002;8.472;2023-04-06T03:48:45;16.98;;;11.45;;
14734;SDS011;7458;49.002;8.472;2023-04-06T03:51:13;11.68;;;8.70;;
14734;SDS011;7458;49.002;8.472;2023-04-06T03:53:39;10.73;;;7.70;;
14734;SDS011;7458;49.002;8.472;2023-04-06T03:56:05;10.07;;;7.72;;
14734;SDS011;7458;49.002;8.472;2023-04-06T03:58:31;9.25;;;6.70;;
14734;SDS011;7458;49.002;8.472;2023-04-06T04:00:57;9.77;;;7.20;;
14734;SDS011;7458;49.002;8.472;2023-04-06T04:03:23;9.02;;;7.72;;
14734;SDS011;7458;49.002;8.472;2023-04-06T04:05:51;12.05;;;8.90;;
14734;SDS011;7458;49.002;8.472;2023-04-06T04:08:18;10.90;;;7.72;;
14734;SDS011;7458;49.002;8.472;2023-04-06T04:10:44;8.70;;;6.47;;
14734;SDS011;7458;49.002;8.472;2023-04-06T04:13:10;9.65;;;6.28;;
14734;SDS011;7458;49.002;8.472;2023-04-06T04:15:36;8.98;;;8.05;;
14734;SDS011;7458;49.002;8.472;2023-04-06T04:18:02;10.27;;;7.25;;
14734;SDS011;7458;49.002;8.472;2023-04-06T04:20:28;10.32;;;7.07;;
14734;SDS011;7458;49.002;8.472;2023-04-06T04:22:53;8.82;;;5.88;;
14734;SDS011;7458;49.002;8.472;2023-04-06T04:25:19;9.15;;;5.63;;
14734;SDS011;7458;49.002;8.472;2023-04-06T04:27:46;10.63;;;7.80;;
14734;SDS011;7458;49.002;8.472;2023-04-06T04:30:11;8.23;;;6.80;;
14734;SDS011;7458;49.002;8.472;2023-04-06T04:32:37;9.77;;;7.70;;
14734;SDS011;7458;49.002;8.472;2023-04-06T04:35:03;10.02;;;8.15;;
14734;SDS011;7458;49.002;8.472;2023-04-06T04:37:30;8.75;;;7.28;;
14734;SDS011;7458;49.002;8.472;2023-04-06T04:39:56;9.48;;;7.75;;
14734;SDS011;7458;49.002;8.472;2023-04-06T04:42:22;8.82;;;7.85;;
14734;SDS011;7458;49.002;8.472;2023-04-06T04:44:48;10.88;;;7.63;;
14734;SDS011;7458;49.002;8.472;2023-04-06T04:47:14;13.38;;;7.70;;
14734;SDS011;7458;49.002;8.472;2023-04-06T04:49:40;12.35;;;8.25;;
14734;SDS011;7458;49.002;8.472;2023-04-06T04:52:05;8.68;;;6.68;;
14734;SDS011;7458;49.002;8.472;2023-04-06T04:54:31;8.88;;;7.97;;
14734;SDS011;7458;49.002;8.472;2023-04-06T04:56:57;9.02;;;7.68;;
14734;SDS011;7458;49.002;8.472;2023-04-06T04:59:23;7.88;;;7.07;;
14734;SDS011;7458;49.002;8.472;2023-04-06T05:01:49;8.52;;;7.60;;
14734;SDS011;7458;49.002;8.472;2023-04-06T05:04:15;12.40;;;7.25;;
14734;SDS011;7458;49.002;8.472;2023-04-06T05:06:41;9.77;;;6.70;;
14734;SDS011;7458;49.002;8.472;2023-04-06T05:09:07;8.38;;;7.32;;
14734;SDS011;7458;49.002;8.472;2023-04-06T05:11:33;9.15;;;7.47;;
14734;SDS011;7458;49.002;8.472;2023-04-06T05:13:59;10.55;;;7.93;;
14734;SDS011;7458;49.002;8.472;2023-04-06T05:16:25;12.40;;;6.85;;
14734;SDS011;7458;49.002;8.472;2023-04-06T05:18:51;13.90;;;7.82;;
14734;SDS011;7458;49.002;8.472;2023-04-06T05:21:18;9.65;;;7.93;;
14734;SDS011;7458;49.002;8.472;2023-04-06T05:23:44;8.55;;;7.38;;
14734;SDS011;7458;49.002;8.472;2023-04-06T05:26:10;16.08;;;8.05;;
14734;SDS011;7458;49.002;8.472;2023-04-06T05:28:36;13.85;;;8.90;;
14734;SDS011;7458;49.002;8.472;2023-04-06T05:31:02;14.07;;;7.97;;
14734;SDS011;7458;49.002;8.472;2023-04-06T05:33:28;11.88;;;8.98;;
14734;SDS011;7458;49.002;8.472;2023-04-06T05:35:55;9.27;;;7.75;;
14734;SDS011;7458;49.002;8.472;2023-04-06T05:38:21;12.10;;;9.00;;
14734;SDS011;7458;49.002;8.472;2023-04-06T05:40:47;9.23;;;8.27;;
14734;SDS011;7458;49.002;8.472;2023-04-06T05:43:12;8.77;;;7.88;;
14734;SDS011;7458;49.002;8.472;2023-04-06T05:45:39;11.05;;;8.63;;
14734;SDS011;7458;49.002;8.472;2023-04-06T05:48:05;11.43;;;8.90;;
14734;SDS011;7458;49.002;8.472;2023-04-06T05:50:31;9.65;;;7.78;;
14734;SDS011;7458;49.002;8.472;2023-04-06T05:52:57;9.93;;;7.80;;
14734;SDS011;7458;49.002;8.472;2023-04-06T05:55:22;10.45;;;8.32;;
14734;SDS011;7458;49.002;8.472;2023-04-06T05:57:48;11.50;;;8.80;;
14734;SDS011;7458;49.002;8.472;2023-04-06T06:00:14;11.88;;;7.95;;
14734;SDS011;7458;49.002;8.472;2023-04-06T06:02:40;11.45;;;7.45;;
14734;SDS011;7458;49.002;8.472;2023-04-06T06:05:07;13.05;;;10.30;;
14734;SDS011;7458;49.002;8.472;2023-04-06T06:07:35;16.13;;;10.32;;
14734;SDS011;7458;49.002;8.472;2023-04-06T06:10:01;13.60;;;10.25;;
14734;SDS011;7458;49.002;8.472;2023-04-06T06:12:27;13.35;;;9.77;;
14734;SDS011;7458;49.002;8.472;2023-04-06T06:14:53;13.35;;;11.43;;
14734;SDS011;7458;49.002;8.472;2023-04-06T06:17:20;24.45;;;11.63;;
14734;SDS011;7458;49.002;8.472;2023-04-06T06:19:46;13.77;;;11.18;;
14734;SDS011;7458;49.002;8.472;2023-04-06T06:22:12;13.23;;;11.10;;
14734;SDS011;7458;49.002;8.472;2023-04-06T06:24:38;12.10;;;9.98;;
14734;SDS011;7458;49.002;8.472;2023-04-06T06:27:04;9.68;;;8.40;;
14734;SDS011;7458;49.002;8.472;2023-04-06T06:29:30;10.80;;;9.55;;
14734;SDS011;7458;49.002;8.472;2023-04-06T06:31:56;9.18;;;8.30;;
14734;SDS011;7458;49.002;8.472;2023-04-06T06:34:22;9.65;;;8.15;;
14734;SDS011;7458;49.002;8.472;2023-04-06T06:36:48;9.98;;;8.10;;
14734;SDS011;7458;49.002;8.472;2023-04-06T06:39:13;10.70;;;9.25;;
14734;SDS011;7458;49.002;8.472;2023-04-06T06:41:39;9.85;;;8.65;;
14734;SDS011;7458;49.002;8.472;2023-04-06T06:44:05;8.60;;;7.80;;
14734;SDS011;7458;49.002;8.472;2023-04-06T06:46:32;12.27;;;9.10;;
14734;SDS011;7458;49.002;8.472;2023-04-06T06:48:58;9.57;;;8.70;;
14734;SDS011;7458;49.002;8.472;2023-04-06T06:51:24;10.75;;;7.63;;
14734;SDS011;7458;49.002;8.472;2023-04-06T06:53:50;12.68;;;8.85;;
14734;SDS011;7458;49.002;8.472;2023-04-06T06:56:15;12.85;;;8.77;;
14734;SDS011;7458;49.002;8.472;2023-04-06T06:58:41;10.23;;;8.00;;
14734;SDS011;7458;49.002;8.472;2023-04-06T07:01:07;8.35;;;7.55;;
14734;SDS011;7458;49.002;8.472;2023-04-06T07:03:33;9.57;;;7.97;;
14734;SDS011;7458;49.002;8.472;2023-04-06T07:05:59;8.15;;;7.32;;
14734;SDS011;7458;49.002;8.472;2023-04-06T07:08:25;10.48;;;8.25;;
14734;SDS011;7458;49.002;8.472;2023-04-06T07:10:51;9.25;;;8.35;;
14734;SDS011;7458;49.002;8.472;2023-04-06T07:13:20;11.90;;;6.90;;
14734;SDS011;7458;49.002;8.472;2023-04-06T07:15:50;11.20;;;8.10;;
14734;SDS011;7458;49.002;8.472;2023-04-06T07:18:23;12.63;;;8.82;;
14734;SDS011;7458;49.002;8.472;2023-04-06T07:20:48;8.88;;;7.63;;
14734;SDS011;7458;49.002;8.472;2023-04-06T07:23:18;10.50;;;7.50;;
14734;SDS011;7458;49.002;8.472;2023-04-06T07:25:47;9.02;;;7.63;;
14734;SDS011;7458;49.002;8.472;2023-04-06T07:28:12;10.20;;;9.18;;
14734;SDS011;7458;49.002;8.472;2023-04-06T07:30:40;11.00;;;9.32;;
14734;SDS011;7458;49.002;8.472;2023-04-06T07:33:06;14.25;;;8.80;;
14734;SDS011;7458;49.002;8.472;2023-04-06T07:35:31;10.02;;;8.05;;
14734;SDS011;7458;49.002;8.472;2023-04-06T07:37:59;11.05;;;7.88;;
14734;SDS011;7458;49.002;8.472;2023-04-06T07:40:25;10.18;;;8.00;;
14734;SDS011;7458;49.002;8.472;2023-04-06T07:42:57;9.98;;;7.95;;
14734;SDS011;7458;49.002;8.472;2023-04-06T07:45:26;13.57;;;8.68;;
14734;SDS011;7458;49.002;8.472;2023-04-06T07:47:55;8.98;;;8.07;;
14734;SDS011;7458;49.002;8.472;2023-04-06T07:50:21;12.13;;;9.68;;
14734;SDS011;7458;49.002;8.472;2023-04-06T07:52:50;10.02;;;8.95;;
14734;SDS011;7458;49.002;8.472;2023-04-06T07:55:16;23.65;;;7.50;;
14734;SDS011;7458;49.002;8.472;2023-04-06T07:57:41;8.38;;;6.90;;
14734;SDS011;7458;49.002;8.472;2023-04-06T08:00:10;10.70;;;8.07;;
14734;SDS011;7458;49.002;8.472;2023-04-06T08:02:38;9.40;;;8.48;;
14734;SDS011;7458;49.002;8.472;2023-04-06T08:05:07;12.52;;;7.93;;
14734;SDS011;7458;49.002;8.472;2023-04-06T08:07:33;8.70;;;7.00;;
14734;SDS011;7458;49.002;8.472;2023-04-06T08:10:00;12.60;;;9.32;;
14734;SDS011;7458;49.002;8.472;2023-04-06T08:12:26;8.63;;;7.75;;
14734;SDS011;7458;49.002;8.472;2023-04-06T08:14:52;14.45;;;9.18;;
14734;SDS011;7458;49.002;8.472;2023-04-06T08:17:18;12.18;;;8.20;;
14734;SDS011;7458;49.002;8.472;2023-04-06T08:19:44;10.93;;;7.75;;
14734;SDS011;7458;49.002;8.472;2023-04-06T08:22:10;8.23;;;7.25;;
14734;SDS011;7458;49.002;8.472;2023-04-06T08:24:36;9.45;;;6.97;;
14734;SDS011;7458;49.002;8.472;2023-04-06T08:27:03;9.27;;;8.38;;
14734;SDS011;7458;49.002;8.472;2023-04-06T08:29:28;8.25;;;7.55;;
14734;SDS011;7458;49.002;8.472;2023-04-06T08:31:54;9.43;;;8.38;;
14734;SDS011;7458;49.002;8.472;2023-04-06T08:34:20;9.82;;;8.82;;
14734;SDS011;7458;49.002;8.472;2023-04-06T08:36:47;9.18;;;8.27;;
14734;SDS011;7458;49.002;8.472;2023-04-06T08:39:13;11.80;;;9.25;;
14734;SDS011;7458;49.002;8.472;2023-04-06T08:41:41;14.45;;;9.20;;
14734;SDS011;7458;49.002;8.472;2023-04-06T08:44:08;10.30;;;8.15;;
14734;SDS011;7458;49.002;8.472;2023-04-06T08:46:34;8.95;;;8.02;;
14734;SDS011;7458;49.002;8.472;2023-04-06T08:49:01;11.23;;;7.13;;
14734;SDS011;7458;49.002;8.472;2023-04-06T08:51:29;8.77;;;7.88;;
14734;SDS011;7458;49.002;8.472;2023-04-06T08:53:56;9.75;;;7.82;;
14734;SDS011;7458;49.002;8.472;2023-04-06T08:56:27;10.85;;;8.63;;
14734;SDS011;7458;49.002;8.472;2023-04-06T08:58:54;9.55;;;7.20;;
14734;SDS011;7458;49.002;8.472;2023-04-06T09:01:22;10.48;;;8.25;;
14734;SDS011;7458;49.002;8.472;2023-04-06T09:03:55;10.10;;;8.75;;
14734;SDS011;7458;49.002;8.472;2023-04-06T09:06:25;9.07;;;8.10;;
14734;SDS011;7458;49.002;8.472;2023-04-06T09:08:52;12.10;;;8.80;;
14734;SDS011;7458;49.002;8.472;2023-04-06T09:11:19;9.00;;;7.00;;
14734;SDS011;7458;49.002;8.472;2023-04-06T09:16:13;9.18;;;8.20;;
14734;SDS011;7458;49.002;8.472;2023-04-06T09:18:40;9.13;;;8.23;;
14734;SDS011;7458;49.002;8.472;2023-04-06T09:21:07;9.00;;;7.63;;
14734;SDS011;7458;49.002;8.472;2023-04-06T09:23:34;10.90;;;9.43;;
14734;SDS011;7458;49.002;8.472;2023-04-06T09:26:10;13.10;;;8.20;;
14734;SDS011;7458;49.002;8.472;2023-04-06T09:31:15;15.43;;;9.13;;
14734;SDS011;7458;49.002;8.472;2023-04-06T09:33:46;12.15;;;9.02;;
14734;SDS011;7458;49.002;8.472;2023-04-06T09:36:12;11.77;;;8.82;;
14734;SDS011;7458;49.002;8.472;2023-04-06T09:39:00;12.40;;;10.90;;
14734;SDS011;7458;49.002;8.472;2023-04-06T09:41:29;11.23;;;9.45;;
14734;SDS011;7458;49.002;8.472;2023-04-06T09:46:37;8.73;;;7.93;;
14734;SDS011;7458;49.002;8.472;2023-04-06T09:49:07;11.02;;;9.07;;
14734;SDS011;7458;49.002;8.472;2023-04-06T09:51:36;11.15;;;9.13;;
14734;SDS011;7458;49.002;8.472;2023-04-06T09:54:09;12.25;;;9.05;;
14734;SDS011;7458;49.002;8.472;2023-04-06T09:56:45;10.52;;;9.40;;
14734;SDS011;7458;49.002;8.472;2023-04-06T09:59:20;11.27;;;9.20;;
14734;SDS011;7458;49.002;8.472;2023-04-06T10:01:59;10.60;;;9.23;;
14734;SDS011;7458;49.002;8.472;2023-04-06T10:07:23;15.20;;;8.65;;
14734;SDS011;7458;49.002;8.472;2023-04-06T10:09:51;12.13;;;8.38;;
14734;SDS011;7458;49.002;8.472;2023-04-06T10:12:20;9.35;;;8.45;;
14734;SDS011;7458;49.002;8.472;2023-04-06T10:14:45;11.07;;;8.85;;
14734;SDS011;7458;49.002;8.472;2023-04-06T10:17:14;9.82;;;8.38;;
14734;SDS011;7458;49.002;8.472;2023-04-06T10:19:58;9.48;;;8.57;;
14734;SDS011;7458;49.002;8.472;2023-04-06T10:22:36;10.55;;;8.65;;
14734;SDS011;7458;49.002;8.472;2023-04-06T10:25:17;10.80;;;9.60;;
14734;SDS011;7458;49.002;8.472;2023-04-06T10:28:01;9.77;;;8.77;;
14734;SDS011;7458;49.002;8.472;2023-04-06T10:30:32;9.52;;;8.52;;
14734;SDS011;7458;49.002;8.472;2023-04-06T10:32:59;11.45;;;10.18;;
14734;SDS011;7458;49.002;8.472;2023-04-06T10:35:35;11.40;;;8.80;;
14734;SDS011;7458;49.002;8.472;2023-04-06T10:38:05;12.80;;;9.57;;
14734;SDS011;7458;49.002;8.472;2023-04-06T10:40:32;11.25;;;9.75;;
14734;SDS011;7458;49.002;8.472;2023-04-06T10:45:37;12.40;;;9.63;;
14734;SDS011;7458;49.002;8.472;2023-04-06T10:48:14;11.73;;;9.13;;
14734;SDS011;7458;49.002;8.472;2023-04-06T10:50:47;10.65;;;9.25;;
14734;SDS011;7458;49.002;8.472;2023-04-06T10:53:22;11.30;;;9.27;;
14734;SDS011;7458;49.002;8.472;2023-04-06T10:55:53;9.38;;;8.45;;
14734;SDS011;7458;49.002;8.472;2023-04-06T10:58:24;9.30;;;8.40;;
14734;SDS011;7458;49.002;8.472;2023-04-06T11:00:51;12.52;;;10.00;;
14734;SDS011;7458;49.002;8.472;2023-04-06T11:03:18;10.60;;;9.45;;
14734;SDS011;7458;49.002;8.472;2023-04-06T11:05:45;10.45;;;9.35;;
14734;SDS011;7458;49.002;8.472;2023-04-06T11:08:22;12.45;;;9.75;;
14734;SDS011;7458;49.002;8.472;2023-04-06T11:11:05;11.10;;;9.45;;
14734;SDS011;7458;49.002;8.472;2023-04-06T11:16:15;12.25;;;9.65;;
14734;SDS011;7458;49.002;8.472;2023-04-06T11:18:50;12.90;;;9.82;;
14734;SDS011;7458;49.002;8.472;2023-04-06T11:21:40;10.48;;;9.43;;
14734;SDS011;7458;49.002;8.472;2023-04-06T11:24:15;16.33;;;10.38;;
14734;SDS011;7458;49.002;8.472;2023-04-06T11:26:50;11.55;;;10.40;;
14734;SDS011;7458;49.002;8.472;2023-04-06T11:29:21;15.80;;;9.98;;
14734;SDS011;7458;49.002;8.472;2023-04-06T11:31:52;10.52;;;9.18;;
14734;SDS011;7458;49.002;8.472;2023-04-06T11:34:23;10.75;;;9.73;;
14734;SDS011;7458;49.002;8.472;2023-04-06T11:37:00;15.60;;;8.95;;
14734;SDS011;7458;49.002;8.472;2023-04-06T11:39:30;8.88;;;7.97;;
14734;SDS011;7458;49.002;8.472;2023-04-06T11:42:00;16.13;;;10.00;;
14734;SDS011;7458;49.002;8.472;2023-04-06T11:44:34;10.93;;;9.07;;
14734;SDS011;7458;49.002;8.472;2023-04-06T11:47:08;8.93;;;8.10;;
14734;SDS011;7458;49.002;8.472;2023-04-06T11:49:39;15.70;;;10.10;;
14734;SDS011;7458;49.002;8.472;2023-04-06T11:54:53;13.88;;;10.20;;
14734;SDS011;7458;49.002;8.472;2023-04-06T11:57:22;10.05;;;8.20;;
14734;SDS011;7458;49.002;8.472;2023-04-06T11:59:50;9.48;;;7.95;;
14734;SDS011;7458;49.002;8.472;2023-04-06T12:02:17;11.27;;;9.98;;
14734;SDS011;7458;49.002;8.472;2023-04-06T12:04:43;9.65;;;8.65;;
14734;SDS011;7458;49.002;8.472;2023-04-06T12:07:09;9.45;;;8.43;;
14734;SDS011;7458;49.002;8.472;2023-04-06T12:09:35;10.73;;;8.73;;
14734;SDS011;7458;49.002;8.472;2023-04-06T12:12:02;10.23;;;8.15;;
14734;SDS011;7458;49.002;8.472;2023-04-06T12:14:28;11.77;;;9.02;;
14734;SDS011;7458;49.002;8.472;2023-04-06T12:16:56;10.02;;;8.52;;
14734;SDS011;7458;49.002;8.472;2023-04-06T12:19:22;9.15;;;7.72;;
14734;SDS011;7458;49.002;8.472;2023-04-06T12:21:51;11.25;;;8.48;;
14734;SDS011;7458;49.002;8.472;2023-04-06T12:24:18;11.63;;;8.43;;
14734;SDS011;7458;49.002;8.472;2023-04-06T12:26:44;9.50;;;8.13;;
14734;SDS011;7458;49.002;8.472;2023-04-06T12:29:10;9.77;;;8.48;;
14734;SDS011;7458;49.002;8.472;2023-04-06T12:31:38;13.38;;;8.55;;
14734;SDS011;7458;49.002;8.472;2023-04-06T12:34:06;13.43;;;9.38;;
14734;SDS011;7458;49.002;8.472;2023-04-06T12:36:32;8.20;;;7.40;;
14734;SDS011;7458;49.002;8.472;2023-04-06T12:38:58;13.30;;;8.70;;
14734;SDS011;7458;49.002;8.472;2023-04-06T12:41:26;11.18;;;8.35;;
14734;SDS011;7458;49.002;8.472;2023-04-06T12:43:53;13.48;;;9.10;;
14734;SDS011;7458;49.002;8.472;2023-04-06T12:46:19;11.45;;;8.85;;
14734;SDS011;7458;49.002;8.472;2023-04-06T12:48:45;9.93;;;8.50;;
14734;SDS011;7458;49.002;8.472;2023-04-06T12:51:11;11.43;;;8.35;;
14734;SDS011;7458;49.002;8.472;2023-04-06T12:53:37;11.63;;;10.32;;
14734;SDS011;7458;49.002;8.472;2023-04-06T12:56:10;10.57;;;9.05;;
14734;SDS011;7458;49.002;8.472;2023-04-06T12:58:42;10.15;;;8.60;;
14734;SDS011;7458;49.002;8.472;2023-04-06T13:01:10;10.43;;;9.38;;
14734;SDS011;7458;49.002;8.472;2023-04-06T13:03:42;11.82;;;9.93;;
14734;SDS011;7458;49.002;8.472;2023-04-06T13:06:08;12.63;;;8.95;;
14734;SDS011;7458;49.002;8.472;2023-04-06T13:08:35;12.52;;;8.95;;
14734;SDS011;7458;49.002;8.472;2023-04-06T13:11:03;9.77;;;8.50;;
14734;SDS011;7458;49.002;8.472;2023-04-06T13:13:30;10.02;;;8.55;;
14734;SDS011;7458;49.002;8.472;2023-04-06T13:16:03;8.70;;;7.85;;
14734;SDS011;7458;49.002;8.472;2023-04-06T13:20:59;10.50;;;8.45;;
14734;SDS011;7458;49.002;8.472;2023-04-06T13:23:25;11.32;;;8.30;;
14734;SDS011;7458;49.002;8.472;2023-04-06T13:26:01;9.35;;;7.95;;
14734;SDS011;7458;49.002;8.472;2023-04-06T13:28:30;10.68;;;9.40;;
14734;SDS011;7458;49.002;8.472;2023-04-06T13:30:58;12.73;;;9.52;;
14734;SDS011;7458;49.002;8.472;2023-04-06T13:33:26;10.55;;;8.68;;
14734;SDS011;7458;49.002;8.472;2023-04-06T13:35:53;8.93;;;6.68;;
14734;SDS011;7458;49.002;8.472;2023-04-06T13:38:19;10.52;;;8.50;;
14734;SDS011;7458;49.002;8.472;2023-04-06T13:40:45;10.57;;;8.85;;
14734;SDS011;7458;49.002;8.472;2023-04-06T13:43:11;9.35;;;8.25;;
14734;SDS011;7458;49.002;8.472;2023-04-06T13:45:37;11.27;;;7.97;;
14734;SDS011;7458;49.002;8.472;2023-04-06T13:48:04;8.98;;;7.53;;
14734;SDS011;7458;49.002;8.472;2023-04-06T13:50:30;8.13;;;7.18;;
14734;SDS011;7458;49.002;8.472;2023-04-06T13:52:57;8.52;;;7.45;;
14734;SDS011;7458;49.002;8.472;2023-04-06T13:55:23;9.32;;;7.28;;
14734;SDS011;7458;49.002;8.472;2023-04-06T13:57:49;7.50;;;6.45;;
14734;SDS011;7458;49.002;8.472;2023-04-06T14:00:16;5.95;;;5.10;;
14734;SDS011;7458;49.002;8.472;2023-04-06T14:02:42;12.27;;;7.40;;
14734;SDS011;7458;49.002;8.472;2023-04-06T14:05:09;9.57;;;6.82;;
14734;SDS011;7458;49.002;8.472;2023-04-06T14:07:35;11.18;;;7.78;;
14734;SDS011;7458;49.002;8.472;2023-04-06T14:10:02;10.90;;;7.95;;
14734;SDS011;7458;49.002;8.472;2023-04-06T14:12:28;7.20;;;6.20;;
14734;SDS011;7458;49.002;8.472;2023-04-06T14:14:54;10.93;;;7.35;;
14734;SDS011;7458;49.002;8.472;2023-04-06T14:17:19;7.78;;;6.97;;
14734;SDS011;7458;49.002;8.472;2023-04-06T14:19:45;9.85;;;7.47;;
14734;SDS011;7458;49.002;8.472;2023-04-06T14:22:13;9.27;;;7.55;;
14734;SDS011;7458;49.002;8.472;2023-04-06T14:24:39;8.35;;;6.50;;
14734;SDS011;7458;49.002;8.472;2023-04-06T14:27:05;8.15;;;6.50;;
14734;SDS011;7458;49.002;8.472;2023-04-06T14:29:31;10.30;;;6.20;;
14734;SDS011;7458;49.002;8.472;2023-04-06T14:31:57;7.20;;;5.50;;
14734;SDS011;7458;49.002;8.472;2023-04-06T14:34:27;9.20;;;5.88;;
14734;SDS011;7458;49.002;8.472;2023-04-06T14:36:54;9.27;;;6.65;;
14734;SDS011;7458;49.002;8.472;2023-04-06T14:39:20;7.75;;;6.28;;
14734;SDS011;7458;49.002;8.472;2023-04-06T14:41:46;7.18;;;6.35;;
14734;SDS011;7458;49.002;8.472;2023-04-06T14:44:12;7.13;;;6.43;;
14734;SDS011;7458;49.002;8.472;2023-04-06T14:46:40;8.85;;;7.03;;
14734;SDS011;7458;49.002;8.472;2023-04-06T14:49:06;9.20;;;7.45;;
14734;SDS011;7458;49.002;8.472;2023-04-06T14:51:33;10.43;;;7.15;;
14734;SDS011;7458;49.002;8.472;2023-04-06T14:54:00;10.23;;;7.80;;
14734;SDS011;7458;49.002;8.472;2023-04-06T14:56:30;9.13;;;8.10;;
14734;SDS011;7458;49.002;8.472;2023-04-06T14:58:59;10.85;;;8.00;;
14734;SDS011;7458;49.002;8.472;2023-04-06T15:01:28;14.10;;;7.70;;
14734;SDS011;7458;49.002;8.472;2023-04-06T15:03:54;12.13;;;7.43;;
14734;SDS011;7458;49.002;8.472;2023-04-06T15:06:20;10.32;;;7.30;;
14734;SDS011;7458;49.002;8.472;2023-04-06T15:08:47;12.88;;;8.18;;
14734;SDS011;7458;49.002;8.472;2023-04-06T15:11:14;11.27;;;8.00;;
14734;SDS011;7458;49.002;8.472;2023-04-06T15:13:40;12.70;;;8.27;;
14734;SDS011;7458;49.002;8.472;2023-04-06T15:16:07;10.57;;;8.05;;